Accueil
METAR-TAF:

METAR-TAF

Aéroports :

Aéroport de Morlaix Ploujean

Morlaix, France

latitude: 48-36N, longitude: 3-49W, altitude: 84 m

Observation

Le bulletin a été fait il y a 7 heures et 36 minutes, à 20:00 UTC
Vent 10 kt de sud-ouest
Température 16°C
Humidité 94%
Pression 1003 hPa
Visibilité: 9000 m
Nuages fragmentés à une hauteur de 1200 ft
Nuages fragmentés à une hauteur de 1700 ft
Ciel couvert à une hauteur de 2400 ft

METAR: LFRU 052000Z AUTO 23010KT 9000 BKN012 BKN017 OVC024 16/15 Q1003

Heure: 05:36 (03:36 UTC)


TAF: absent

Observations et prévisions météorologiques de plus de 4000 aéroports (messages METAR et TAF).

Les stations disponibles sont représentées par des disques jaunes et rouges sur la carte.

Passer la souris dessus pour voir le nom de la station.

Cliquer dessus pour voir les observations et prévisions météorologiques.

Pour changer de carte: cliquez sur les boutons verts avec une croix noire pour zoomer, sur le bouton vert avec un tiret pour effectuer un zoom arrière, ou sur les flèches vertes pour les cartes adjacentes.


METAR-TAF: